Time;durP1;ratioP1;P1;durP2;ratioP2;P2;SDS_P1;SDS_P2;PMS_P1;PMS_P2;Temp;Humidity;BMP_temperature;BMP_pressure;BME280_temperature;BME280_humidity;BME280_pressure;Samples;Min_cycle;Max_cycle;Signal;HPM_P1;HPM_P2
2024/03/20 00:00:21;;;;;;;12.63;3.70;;;11.80;99.90;;;;;;5055732;28;20086;-62
2024/03/20 00:02:47;;;;;;;10.15;3.60;;;11.80;99.90;;;;;;5055568;28;20052;-63
2024/03/20 00:05:16;;;;;;;14.38;3.83;;;11.80;99.90;;;;;;5055451;28;20041;-64
2024/03/20 00:07:41;;;;;;;15.50;3.70;;;11.70;99.90;;;;;;5055409;28;20131;-64
2024/03/20 00:10:07;;;;;;;11.20;3.63;;;11.70;99.90;;;;;;5055266;28;20044;-64
2024/03/20 00:12:33;;;;;;;11.50;3.55;;;11.70;99.90;;;;;;5055390;28;20123;-64
2024/03/20 00:14:59;;;;;;;13.63;4.00;;;11.70;99.90;;;;;;5055537;28;20044;-64
2024/03/20 00:17:25;;;;;;;12.63;3.83;;;11.60;99.90;;;;;;5054907;28;20143;-64
2024/03/20 00:19:51;;;;;;;15.73;4.05;;;11.60;99.90;;;;;;5071943;28;20041;-64
2024/03/20 00:22:16;;;;;;;12.02;3.63;;;11.60;99.90;;;;;;5055601;28;20476;-63
2024/03/20 00:24:42;;;;;;;9.50;3.35;;;11.60;99.90;;;;;;5055193;28;20044;-64
2024/03/20 00:27:08;;;;;;;16.40;3.90;;;11.60;99.90;;;;;;5055307;28;20076;-64
2024/03/20 00:29:34;;;;;;;13.35;3.45;;;11.70;99.90;;;;;;5055347;28;20041;-63
2024/03/20 00:32:00;;;;;;;12.32;3.85;;;11.70;99.90;;;;;;5055098;28;20048;-63
2024/03/20 00:34:25;;;;;;;15.15;3.60;;;11.70;99.90;;;;;;5054954;28;20048;-63
2024/03/20 00:36:51;;;;;;;13.55;3.88;;;11.70;99.90;;;;;;5054748;28;20045;-63
2024/03/20 00:39:18;;;;;;;8.93;2.95;;;11.70;99.90;;;;;;5054856;28;20043;-63
2024/03/20 00:41:44;;;;;;;15.48;3.70;;;11.70;99.90;;;;;;5054952;28;20048;-63
2024/03/20 00:44:10;;;;;;;13.77;3.63;;;11.70;99.90;;;;;;5055069;28;20387;-63
2024/03/20 00:46:35;;;;;;;14.30;3.80;;;11.70;99.90;;;;;;5054681;28;20139;-63
2024/03/20 00:49:01;;;;;;;12.27;3.97;;;11.70;99.90;;;;;;5071307;28;20055;-63
2024/03/20 00:51:27;;;;;;;11.25;4.22;;;11.70;99.90;;;;;;5055022;28;20064;-63
2024/03/20 00:53:53;;;;;;;16.25;4.05;;;11.80;99.90;;;;;;5054654;28;20167;-63
2024/03/20 00:56:18;;;;;;;17.55;3.83;;;11.80;99.90;;;;;;5054426;28;20037;-63
2024/03/20 00:58:44;;;;;;;12.75;4.22;;;11.80;99.90;;;;;;5054512;28;20099;-63
2024/03/20 01:01:11;;;;;;;12.07;4.13;;;11.80;99.90;;;;;;5054555;28;20111;-63
2024/03/20 01:03:37;;;;;;;11.80;3.50;;;11.70;99.90;;;;;;5054435;28;20041;-63
2024/03/20 01:06:03;;;;;;;10.95;3.95;;;11.70;99.90;;;;;;5070990;28;20045;-63
2024/03/20 01:08:29;;;;;;;13.30;4.43;;;11.70;99.90;;;;;;5053506;28;20037;-63
2024/03/20 01:10:55;;;;;;;16.10;4.35;;;11.70;99.90;;;;;;5053943;28;20143;-63
2024/03/20 01:13:22;;;;;;;13.07;4.20;;;11.60;99.90;;;;;;5054343;28;20128;-62
2024/03/20 01:15:48;;;;;;;12.43;4.40;;;11.60;99.90;;;;;;5054014;28;20045;-63
2024/03/20 01:18:16;;;;;;;15.52;3.92;;;11.60;99.90;;;;;;5070502;28;20064;-63
2024/03/20 01:20:42;;;;;;;12.00;3.88;;;11.60;99.90;;;;;;5054163;28;20075;-63
2024/03/20 01:23:07;;;;;;;10.18;3.42;;;11.60;99.90;;;;;;5054077;28;20041;-63
2024/03/20 01:25:33;;;;;;;12.95;3.88;;;11.60;99.90;;;;;;5054014;28;20041;-63
2024/03/20 01:27:59;;;;;;;16.05;4.13;;;11.60;99.90;;;;;;5054194;28;20048;-63
2024/03/20 01:30:25;;;;;;;15.40;4.07;;;11.60;99.90;;;;;;5054206;28;20037;-63
2024/03/20 01:32:50;;;;;;;12.50;3.95;;;11.50;99.90;;;;;;5053866;28;20121;-63
2024/03/20 01:35:16;;;;;;;14.02;4.22;;;11.50;99.90;;;;;;5054118;28;20040;-63
2024/03/20 01:37:42;;;;;;;12.23;4.30;;;11.50;99.90;;;;;;5053726;28;20044;-63
2024/03/20 01:40:09;;;;;;;11.13;3.72;;;11.50;99.90;;;;;;5053751;28;20065;-63
2024/03/20 01:42:34;;;;;;;9.88;3.90;;;11.50;99.90;;;;;;5053709;28;20033;-63
2024/03/20 01:45:00;;;;;;;13.70;4.00;;;11.50;99.90;;;;;;5053840;28;20437;-63
2024/03/20 01:47:26;;;;;;;13.40;3.95;;;11.50;99.90;;;;;;5053250;28;20067;-63
2024/03/20 01:49:52;;;;;;;12.43;4.15;;;11.50;99.90;;;;;;5053504;28;20402;-63
2024/03/20 01:52:17;;;;;;;9.52;3.75;;;11.40;99.90;;;;;;5053379;28;20075;-63
2024/03/20 01:54:43;;;;;;;16.20;4.10;;;11.50;99.90;;;;;;5053425;28;20087;-62
2024/03/20 01:57:09;;;;;;;8.95;3.80;;;11.40;99.90;;;;;;5053527;28;20041;-63
2024/03/20 01:59:35;;;;;;;11.77;4.75;;;11.40;99.90;;;;;;5053413;28;20068;-63
2024/03/20 02:02:01;;;;;;;11.23;3.53;;;11.40;99.90;;;;;;5053518;28;20091;-63
2024/03/20 02:04:26;;;;;;;10.85;4.10;;;11.40;99.90;;;;;;5053293;28;20116;-64
2024/03/20 02:06:52;;;;;;;15.00;4.07;;;11.40;99.90;;;;;;5053506;28;20045;-63
2024/03/20 02:09:18;;;;;;;12.23;4.05;;;11.30;99.90;;;;;;5053833;28;20139;-63
2024/03/20 02:11:44;;;;;;;14.52;4.75;;;11.30;99.90;;;;;;5053123;28;20041;-63
2024/03/20 02:14:10;;;;;;;11.00;3.40;;;11.30;99.90;;;;;;5036316;28;20504;-63
2024/03/20 02:16:36;;;;;;;13.75;3.88;;;11.30;99.90;;;;;;5036255;28;20045;-63
2024/03/20 02:19:02;;;;;;;13.20;4.18;;;11.30;99.90;;;;;;5036391;28;20566;-64
2024/03/20 02:21:27;;;;;;;9.05;4.00;;;11.30;99.90;;;;;;5052871;28;20041;-63
2024/03/20 02:23:53;;;;;;;12.88;3.45;;;11.30;99.90;;;;;;5036399;28;20433;-63
2024/03/20 02:26:19;;;;;;;10.48;4.10;;;11.30;99.90;;;;;;5052905;28;20045;-63
2024/03/20 02:28:45;;;;;;;12.88;4.15;;;11.20;99.90;;;;;;5052844;28;20064;-64
2024/03/20 02:31:10;;;;;;;11.15;3.75;;;11.30;99.90;;;;;;5052850;28;20091;-64
2024/03/20 02:33:36;;;;;;;14.60;3.83;;;11.20;99.90;;;;;;5053045;28;20040;-63
2024/03/20 02:36:02;;;;;;;13.13;4.10;;;11.20;99.90;;;;;;5052682;28;20402;-63
2024/03/20 02:38:28;;;;;;;16.38;3.92;;;11.20;99.90;;;;;;5052796;28;20442;-63
2024/03/20 02:40:56;;;;;;;12.57;3.90;;;11.20;99.90;;;;;;5052891;28;20045;-64
2024/03/20 02:43:22;;;;;;;9.18;3.65;;;11.10;99.90;;;;;;5052770;28;20137;-63
2024/03/20 02:45:48;;;;;;;12.02;3.70;;;11.10;99.90;;;;;;5052653;28;20053;-64
2024/03/20 02:48:13;;;;;;;10.25;3.75;;;11.10;99.90;;;;;;5052834;28;20049;-64
2024/03/20 02:50:39;;;;;;;8.13;3.78;;;11.10;99.90;;;;;;5052802;28;20123;-63
2024/03/20 02:53:05;;;;;;;14.23;4.00;;;11.10;99.90;;;;;;5052745;28;20095;-65
2024/03/20 02:55:31;;;;;;;13.32;4.00;;;11.00;99.90;;;;;;5035331;28;20037;-63
2024/03/20 02:57:57;;;;;;;10.57;3.92;;;11.00;99.90;;;;;;5052166;28;20037;-63
2024/03/20 03:00:22;;;;;;;13.45;4.25;;;11.00;99.90;;;;;;5052129;28;20075;-63
2024/03/20 03:02:48;;;;;;;12.45;4.13;;;11.00;99.90;;;;;;5052253;28;20045;-63
2024/03/20 03:05:14;;;;;;;9.68;3.50;;;11.00;99.90;;;;;;5052181;28;20044;-63
2024/03/20 03:07:40;;;;;;;11.20;4.38;;;10.90;99.90;;;;;;5052307;28;20045;-63
2024/03/20 03:10:08;;;;;;;9.18;3.50;;;10.90;99.90;;;;;;5052549;28;20425;-66
2024/03/20 03:12:34;;;;;;;8.07;3.92;;;10.90;99.90;;;;;;5052314;28;20048;-66
2024/03/20 03:14:59;;;;;;;8.48;3.65;;;10.90;99.90;;;;;;5052331;28;20037;-66
2024/03/20 03:17:25;;;;;;;8.60;4.10;;;10.90;99.90;;;;;;5051884;28;20053;-65
2024/03/20 03:19:51;;;;;;;11.20;5.30;;;10.90;99.90;;;;;;5052097;28;20037;-66
2024/03/20 03:22:17;;;;;;;12.88;4.05;;;10.90;99.90;;;;;;5034958;28;20110;-66
2024/03/20 03:24:42;;;;;;;9.30;3.60;;;10.90;99.90;;;;;;5051296;28;20048;-66
2024/03/20 03:27:08;;;;;;;9.63;3.55;;;10.90;99.90;;;;;;5051256;28;20136;-68
2024/03/20 03:29:34;;;;;;;12.65;3.55;;;10.90;99.90;;;;;;5051892;28;20045;-68
2024/03/20 03:32:00;;;;;;;9.68;4.18;;;10.80;99.90;;;;;;5052344;28;20064;-68
2024/03/20 03:34:26;;;;;;;13.48;4.03;;;10.90;99.90;;;;;;5055915;28;20090;-68
2024/03/20 03:36:51;;;;;;;12.63;3.92;;;10.90;99.90;;;;;;5056207;28;20029;-68
2024/03/20 03:39:17;;;;;;;12.88;3.80;;;10.90;99.90;;;;;;5056157;28;20489;-68
2024/03/20 03:41:43;;;;;;;11.23;4.10;;;10.90;99.90;;;;;;5055701;28;20082;-68
2024/03/20 03:44:09;;;;;;;9.43;3.50;;;11.00;99.90;;;;;;5056175;28;20040;-68
2024/03/20 03:46:34;;;;;;;11.35;3.85;;;11.00;99.90;;;;;;5039276;28;20068;-68
2024/03/20 03:49:00;;;;;;;11.43;4.10;;;11.00;99.90;;;;;;5055575;28;20068;-68
2024/03/20 03:51:26;;;;;;;12.45;3.92;;;11.00;99.90;;;;;;5055369;28;20042;-68
2024/03/20 03:53:52;;;;;;;10.93;3.85;;;11.00;99.90;;;;;;5055507;28;20077;-61
2024/03/20 03:56:18;;;;;;;9.82;3.92;;;11.00;99.90;;;;;;5056016;28;20032;-63
2024/03/20 03:58:43;;;;;;;12.13;4.20;;;11.00;99.90;;;;;;5055797;28;20367;-62
2024/03/20 04:01:09;;;;;;;12.77;4.65;;;11.00;99.90;;;;;;5055799;28;20431;-63
2024/03/20 04:03:35;;;;;;;10.32;4.65;;;10.90;99.90;;;;;;5039204;28;20175;-64
2024/03/20 04:06:01;;;;;;;11.88;4.85;;;10.90;99.90;;;;;;5055455;28;20036;-66
2024/03/20 04:08:27;;;;;;;11.93;5.43;;;10.90;99.90;;;;;;5055564;28;20045;-66
2024/03/20 04:10:52;;;;;;;11.95;5.78;;;10.90;99.90;;;;;;5055458;28;20171;-65
2024/03/20 04:13:18;;;;;;;17.92;7.00;;;11.00;99.90;;;;;;5055575;28;20535;-64
2024/03/20 04:15:44;;;;;;;10.65;6.57;;;11.00;99.90;;;;;;5055233;28;20045;-65
2024/03/20 04:18:10;;;;;;;15.23;7.05;;;10.90;99.90;;;;;;5055451;28;20475;-66
2024/03/20 04:20:35;;;;;;;14.43;6.75;;;10.90;99.90;;;;;;5071881;28;20079;-66
2024/03/20 04:23:02;;;;;;;16.20;7.40;;;11.00;99.90;;;;;;5038767;28;20124;-66
2024/03/20 04:25:28;;;;;;;12.13;6.70;;;10.90;99.90;;;;;;5038604;28;20033;-66
2024/03/20 04:27:54;;;;;;;11.75;6.70;;;10.90;99.90;;;;;;5055106;28;20041;-65
2024/03/20 04:30:20;;;;;;;16.88;7.82;;;10.90;99.90;;;;;;5054990;28;20048;-66
2024/03/20 04:32:46;;;;;;;14.82;7.32;;;10.90;99.90;;;;;;5055531;28;20130;-66
2024/03/20 04:35:11;;;;;;;14.55;6.80;;;10.90;99.90;;;;;;5055278;28;20041;-61
2024/03/20 04:37:37;;;;;;;11.60;6.82;;;10.90;99.90;;;;;;5054861;28;20037;-61
2024/03/20 04:40:03;;;;;;;17.02;7.82;;;10.90;99.90;;;;;;5054860;28;20029;-61
2024/03/20 04:42:29;;;;;;;15.10;7.97;;;10.90;99.90;;;;;;5054939;28;20037;-61
2024/03/20 04:44:55;;;;;;;16.35;7.22;;;10.90;99.90;;;;;;5054916;28;20430;-61
2024/03/20 04:47:21;;;;;;;12.27;7.28;;;10.80;99.90;;;;;;5055073;28;20052;-61
2024/03/20 04:49:46;;;;;;;15.57;7.90;;;10.80;99.90;;;;;;5054392;28;20037;-61
2024/03/20 04:52:12;;;;;;;16.70;8.07;;;10.80;99.90;;;;;;5054665;28;20065;-61
2024/03/20 04:54:38;;;;;;;17.92;7.95;;;10.90;99.90;;;;;;5054362;28;20444;-61
2024/03/20 04:57:04;;;;;;;12.02;7.32;;;10.90;99.90;;;;;;5038260;28;20462;-61
2024/03/20 04:59:29;;;;;;;18.38;8.70;;;10.90;99.90;;;;;;5037642;28;20072;-61
2024/03/20 05:01:55;;;;;;;20.30;9.02;;;10.90;99.90;;;;;;5054881;28;20106;-61
2024/03/20 05:04:21;;;;;;;14.85;7.95;;;10.80;99.90;;;;;;5054806;28;20041;-61
2024/03/20 05:06:47;;;;;;;12.70;7.50;;;10.80;99.90;;;;;;5054153;28;20464;-62
2024/03/20 05:09:13;;;;;;;15.50;7.68;;;10.80;99.90;;;;;;5054352;28;20124;-61
2024/03/20 05:11:38;;;;;;;19.80;9.75;;;10.80;99.90;;;;;;5054075;28;20037;-61
2024/03/20 05:14:04;;;;;;;12.00;7.15;;;10.80;99.90;;;;;;5054564;28;20037;-61
2024/03/20 05:16:30;;;;;;;21.25;8.07;;;10.80;99.90;;;;;;5053904;28;20053;-62
2024/03/20 05:18:56;;;;;;;22.38;9.25;;;10.80;99.90;;;;;;5054549;28;20041;-61
2024/03/20 05:21:22;;;;;;;13.00;6.93;;;10.80;99.90;;;;;;5054313;28;20083;-60
2024/03/20 05:23:47;;;;;;;12.75;6.68;;;10.80;99.90;;;;;;5037671;28;20501;-61
2024/03/20 05:26:13;;;;;;;14.85;7.53;;;10.80;99.90;;;;;;5053670;28;20037;-61
2024/03/20 05:28:39;;;;;;;12.40;7.15;;;10.80;99.90;;;;;;5053668;28;20048;-61
2024/03/20 05:31:05;;;;;;;14.38;7.22;;;10.80;99.90;;;;;;5053903;28;20040;-62
2024/03/20 05:33:30;;;;;;;17.30;7.30;;;10.70;99.90;;;;;;5054164;28;20048;-61
2024/03/20 05:35:56;;;;;;;14.85;7.20;;;10.80;99.90;;;;;;5036979;28;20486;-61
2024/03/20 05:38:22;;;;;;;13.32;7.15;;;10.70;99.90;;;;;;5053828;28;20429;-61
2024/03/20 05:40:48;;;;;;;13.60;7.03;;;10.70;99.90;;;;;;5053774;28;20120;-61
2024/03/20 05:43:15;;;;;;;13.30;7.55;;;10.70;99.90;;;;;;5054015;28;20044;-61
2024/03/20 05:45:41;;;;;;;13.07;6.95;;;10.70;99.90;;;;;;5053562;28;20044;-61
2024/03/20 05:48:07;;;;;;;13.75;7.90;;;10.70;99.90;;;;;;5053969;28;20072;-61
2024/03/20 05:50:32;;;;;;;14.80;7.22;;;10.70;99.90;;;;;;5053616;28;20099;-61
2024/03/20 05:52:58;;;;;;;14.52;7.15;;;10.70;99.90;;;;;;5053593;28;20045;-62
2024/03/20 05:55:24;;;;;;;12.93;6.95;;;10.70;99.90;;;;;;5052465;28;20048;-61
2024/03/20 05:57:51;;;;;;;12.65;6.78;;;10.70;99.90;;;;;;5053632;28;20037;-61
2024/03/20 06:00:16;;;;;;;13.52;6.88;;;10.80;99.90;;;;;;5053609;28;20039;-61
2024/03/20 06:02:42;;;;;;;15.75;7.65;;;10.80;99.90;;;;;;5053308;28;20036;-62
2024/03/20 06:05:09;;;;;;;16.52;7.28;;;10.70;99.90;;;;;;5036326;28;20033;-61
2024/03/20 06:07:35;;;;;;;16.27;7.68;;;10.70;99.90;;;;;;5053193;28;20563;-61
2024/03/20 06:10:01;;;;;;;13.27;7.65;;;10.80;99.90;;;;;;5052993;28;20033;-61
2024/03/20 06:12:27;;;;;;;14.90;7.43;;;10.80;99.90;;;;;;5052874;28;20473;-61
2024/03/20 06:14:52;;;;;;;14.75;7.28;;;10.70;99.90;;;;;;5052787;28;20048;-61
2024/03/20 06:17:18;;;;;;;17.88;7.40;;;10.80;99.90;;;;;;5052765;28;20053;-61
2024/03/20 06:19:44;;;;;;;18.70;7.65;;;10.80;99.90;;;;;;5052767;28;20037;-61
2024/03/20 06:22:10;;;;;;;15.55;7.65;;;10.80;99.90;;;;;;5053235;28;20037;-61
2024/03/20 06:24:37;;;;;;;12.63;7.53;;;10.80;99.90;;;;;;5052926;28;20040;-61
2024/03/20 06:27:03;;;;;;;15.55;7.40;;;10.80;99.90;;;;;;5036554;28;20466;-61
2024/03/20 06:29:29;;;;;;;10.95;6.40;;;10.80;99.90;;;;;;5036545;28;20048;-61
2024/03/20 06:31:56;;;;;;;11.77;6.53;;;10.80;99.90;;;;;;5053101;28;20036;-64
2024/03/20 06:34:22;;;;;;;13.27;6.68;;;10.80;99.90;;;;;;5052641;28;20086;-61
2024/03/20 06:36:48;;;;;;;17.27;6.50;;;10.80;99.90;;;;;;5035932;28;20040;-61
2024/03/20 06:39:14;;;;;;;14.45;6.40;;;10.80;99.90;;;;;;5052448;28;20037;-61
2024/03/20 06:41:40;;;;;;;14.23;6.22;;;10.80;99.90;;;;;;5035783;28;20063;-61
2024/03/20 06:44:07;;;;;;;12.50;6.25;;;10.80;99.90;;;;;;5052391;28;20486;-61
2024/03/20 06:46:33;;;;;;;12.77;6.13;;;10.80;99.90;;;;;;5052873;28;20044;-61
2024/03/20 06:49:00;;;;;;;13.10;6.75;;;10.80;99.90;;;;;;5035542;28;20072;-61
2024/03/20 06:51:32;;;;;;;15.93;7.03;;;10.80;99.90;;;;;;5052587;28;20048;-61
2024/03/20 06:53:57;;;;;;;12.38;6.13;;;10.80;99.90;;;;;;5052383;28;20048;-61
2024/03/20 06:56:23;;;;;;;15.43;6.70;;;10.80;99.90;;;;;;5052404;28;20506;-61
2024/03/20 06:58:49;;;;;;;14.70;6.28;;;10.90;99.90;;;;;;5052895;28;20374;-61
2024/03/20 07:01:15;;;;;;;13.43;6.53;;;10.90;99.90;;;;;;5052474;28;20045;-61
2024/03/20 07:03:40;;;;;;;15.77;5.95;;;10.80;99.90;;;;;;5052328;28;20119;-61
2024/03/20 07:06:07;;;;;;;12.70;5.72;;;10.80;99.90;;;;;;5051953;28;20045;-61
2024/03/20 07:08:32;;;;;;;13.48;6.40;;;10.80;99.90;;;;;;5052294;28;20049;-61
2024/03/20 07:10:58;;;;;;;15.35;6.10;;;10.90;99.90;;;;;;5052157;28;20116;-61
2024/03/20 07:13:24;;;;;;;14.30;5.80;;;10.90;99.90;;;;;;5051664;28;20044;-61
2024/03/20 07:15:50;;;;;;;13.65;5.72;;;10.90;99.90;;;;;;5047143;28;20053;-62
2024/03/20 07:18:16;;;;;;;13.43;5.72;;;11.00;99.90;;;;;;5051312;28;20414;-62
2024/03/20 07:20:42;;;;;;;11.70;6.03;;;11.00;99.90;;;;;;5051109;28;20072;-61
2024/03/20 07:23:07;;;;;;;9.35;5.03;;;11.00;99.90;;;;;;5051330;28;20065;-61
2024/03/20 07:25:33;;;;;;;13.68;5.35;;;11.10;99.90;;;;;;5051458;28;20565;-61
2024/03/20 07:27:59;;;;;;;12.73;4.97;;;11.10;99.90;;;;;;5051584;28;20036;-61
2024/03/20 07:30:25;;;;;;;12.68;4.72;;;11.20;99.90;;;;;;5051201;28;20040;-61
2024/03/20 07:32:50;;;;;;;13.77;4.78;;;11.30;99.90;;;;;;5051540;28;20041;-61
2024/03/20 07:35:16;;;;;;;8.77;4.18;;;11.40;99.90;;;;;;5051295;28;20033;-62
2024/03/20 07:37:43;;;;;;;11.55;4.25;;;11.40;99.90;;;;;;5051592;28;20076;-61
2024/03/20 07:40:08;;;;;;;11.15;4.13;;;11.50;99.90;;;;;;5051038;28;20073;-62
2024/03/20 07:42:34;;;;;;;11.82;4.10;;;11.60;99.90;;;;;;5051539;28;20045;-61
2024/03/20 07:45:00;;;;;;;10.18;4.10;;;11.60;99.90;;;;;;5051310;28;20094;-61
2024/03/20 07:47:26;;;;;;;12.05;4.28;;;11.70;99.90;;;;;;5051310;28;20049;-61
2024/03/20 07:49:52;;;;;;;7.68;3.97;;;11.80;99.90;;;;;;5051116;28;20044;-62
2024/03/20 07:52:17;;;;;;;11.48;4.10;;;11.80;99.90;;;;;;5051218;28;20367;-61
2024/03/20 07:54:43;;;;;;;9.30;3.70;;;11.90;99.90;;;;;;5034752;28;20041;-61
2024/03/20 07:57:09;;;;;;;9.18;3.85;;;11.90;99.90;;;;;;5051498;28;20494;-61
2024/03/20 07:59:35;;;;;;;9.95;3.80;;;12.00;99.90;;;;;;5051049;28;20128;-61
2024/03/20 08:02:01;;;;;;;10.20;3.83;;;12.00;99.90;;;;;;5034578;28;20056;-61
2024/03/20 08:04:26;;;;;;;7.45;3.58;;;12.10;99.90;;;;;;5051087;28;20052;-62
2024/03/20 08:06:53;;;;;;;11.23;3.50;;;12.10;99.90;;;;;;5051353;28;20037;-61
2024/03/20 08:09:19;;;;;;;10.88;3.30;;;12.20;99.90;;;;;;5051086;28;20052;-61
2024/03/20 08:11:44;;;;;;;8.05;3.25;;;12.20;99.90;;;;;;5050784;28;20068;-61
2024/03/20 08:14:13;;;;;;;12.23;3.95;;;12.30;99.90;;;;;;5051110;28;20124;-61
2024/03/20 08:16:38;;;;;;;11.00;3.70;;;12.40;99.90;;;;;;5050708;28;20045;-61
2024/03/20 08:19:07;;;;;;;8.68;3.38;;;12.40;99.90;;;;;;5053717;28;20079;-61
2024/03/20 08:21:33;;;;;;;10.52;3.00;;;12.40;99.90;;;;;;5054594;28;20041;-62
2024/03/20 08:23:59;;;;;;;10.50;3.10;;;12.40;99.90;;;;;;5054505;28;20051;-62
2024/03/20 08:26:25;;;;;;;7.57;2.70;;;12.50;99.90;;;;;;5054814;28;20049;-62
2024/03/20 08:28:51;;;;;;;9.27;3.10;;;12.50;99.90;;;;;;5054599;28;20102;-62
2024/03/20 08:31:17;;;;;;;10.10;2.90;;;12.50;99.90;;;;;;5054131;28;20060;-62
2024/03/20 08:33:43;;;;;;;9.95;2.65;;;12.60;99.90;;;;;;5054499;28;20486;-62
2024/03/20 08:36:08;;;;;;;10.10;3.10;;;12.60;99.90;;;;;;5037793;28;20087;-62
2024/03/20 08:38:35;;;;;;;8.82;2.28;;;12.70;99.90;;;;;;5054458;28;20036;-62
2024/03/20 08:41:01;;;;;;;7.53;2.83;;;12.70;99.90;;;;;;5054098;28;20041;-62
2024/03/20 08:43:27;;;;;;;9.82;3.35;;;12.80;99.90;;;;;;5054000;28;20041;-62
2024/03/20 08:45:53;;;;;;;10.43;3.80;;;12.80;99.90;;;;;;5054611;28;20551;-61
2024/03/20 08:48:18;;;;;;;9.07;4.10;;;12.90;99.90;;;;;;5055022;28;20450;-65
2024/03/20 08:50:45;;;;;;;10.93;3.60;;;12.90;99.90;;;;;;5071096;28;20045;-64
2024/03/20 08:53:13;;;;;;;10.88;3.25;;;13.00;99.90;;;;;;5053537;28;20056;-65
2024/03/20 08:55:40;;;;;;;8.65;3.45;;;13.00;99.90;;;;;;5053192;28;20037;-65
2024/03/20 08:58:06;;;;;;;9.30;3.33;;;13.10;99.90;;;;;;5069957;28;20414;-65
2024/03/20 09:00:32;;;;;;;8.40;2.95;;;13.10;99.90;;;;;;5054158;28;20063;-65
2024/03/20 09:02:58;;;;;;;7.07;3.10;;;13.10;99.90;;;;;;5054357;28;20064;-66
2024/03/20 09:05:24;;;;;;;9.43;3.13;;;13.10;99.90;;;;;;5054191;28;20075;-65
2024/03/20 09:07:49;;;;;;;13.45;3.05;;;13.20;99.90;;;;;;5054439;28;20486;-66
2024/03/20 09:10:15;;;;;;;9.23;3.28;;;13.30;99.90;;;;;;5054855;28;20056;-64
2024/03/20 09:12:41;;;;;;;8.23;3.13;;;13.40;99.90;;;;;;5054516;28;20041;-64
2024/03/20 09:15:07;;;;;;;10.18;3.70;;;13.40;99.90;;;;;;5053951;28;20037;-65
2024/03/20 09:17:33;;;;;;;7.95;3.95;;;13.50;99.90;;;;;;5054328;28;20103;-65
2024/03/20 09:19:58;;;;;;;12.65;4.07;;;13.50;99.90;;;;;;5054409;28;20045;-64
2024/03/20 09:22:24;;;;;;;11.50;3.22;;;13.50;99.90;;;;;;5053906;28;20099;-65
2024/03/20 09:24:50;;;;;;;10.32;3.55;;;13.60;99.90;;;;;;5054470;28;20055;-65
2024/03/20 09:27:16;;;;;;;10.15;3.40;;;13.70;99.90;;;;;;5053961;28;20045;-65
2024/03/20 09:29:41;;;;;;;8.90;2.88;;;13.70;99.90;;;;;;5052998;28;20041;-64
2024/03/20 09:32:07;;;;;;;11.20;3.15;;;13.80;99.90;;;;;;5053699;28;20044;-65
2024/03/20 09:34:35;;;;;;;14.15;3.72;;;13.90;99.90;;;;;;5054069;28;20056;-65
2024/03/20 09:37:00;;;;;;;9.55;3.38;;;13.90;99.90;;;;;;5053878;28;20033;-65
2024/03/20 09:39:26;;;;;;;8.13;2.83;;;14.00;99.90;;;;;;5054191;28;20076;-66
2024/03/20 09:41:52;;;;;;;12.90;3.30;;;14.10;99.90;;;;;;5053798;28;20065;-65
2024/03/20 09:44:18;;;;;;;10.32;3.38;;;14.10;99.90;;;;;;5036788;28;20041;-61
2024/03/20 09:46:44;;;;;;;5.47;2.03;;;14.20;99.90;;;;;;5053449;28;20072;-64
2024/03/20 09:49:09;;;;;;;10.52;2.72;;;14.30;99.90;;;;;;5053551;28;20090;-61
2024/03/20 09:51:35;;;;;;;8.10;2.22;;;14.40;99.90;;;;;;5053613;28;20045;-61
2024/03/20 09:54:01;;;;;;;8.27;2.63;;;14.50;99.90;;;;;;5053170;28;20064;-61
2024/03/20 09:56:27;;;;;;;7.47;2.47;;;14.60;99.90;;;;;;5053362;28;20462;-61
2024/03/20 09:58:53;;;;;;;5.40;2.38;;;14.70;99.90;;;;;;5053441;28;20052;-61
2024/03/20 10:01:22;;;;;;;7.07;2.35;;;14.80;99.90;;;;;;5053335;28;20124;-62
2024/03/20 10:03:50;;;;;;;6.47;2.15;;;14.90;99.90;;;;;;5053126;28;20429;-62
2024/03/20 10:06:15;;;;;;;6.00;2.35;;;14.90;99.90;;;;;;5053218;28;20096;-62
2024/03/20 10:08:41;;;;;;;8.63;2.15;;;15.00;99.90;;;;;;5052970;28;20442;-62
2024/03/20 10:11:07;;;;;;;13.85;2.50;;;15.10;99.90;;;;;;5052849;28;20044;-62
2024/03/20 10:13:33;;;;;;;6.03;2.13;;;15.10;99.90;;;;;;5069677;28;20124;-61
2024/03/20 10:15:59;;;;;;;5.18;2.30;;;15.20;99.90;;;;;;5052391;28;20091;-62
2024/03/20 10:18:24;;;;;;;8.27;3.00;;;15.20;99.90;;;;;;5052589;28;20394;-63
2024/03/20 10:20:51;;;;;;;6.38;2.33;;;15.20;99.90;;;;;;5053265;28;20045;-62
2024/03/20 10:23:16;;;;;;;9.70;2.45;;;15.20;99.90;;;;;;5053113;28;20041;-62
2024/03/20 10:25:42;;;;;;;9.52;2.63;;;15.20;99.90;;;;;;5052856;28;20037;-62
2024/03/20 10:28:09;;;;;;;7.75;2.28;;;15.20;99.90;;;;;;5052590;28;20037;-62
2024/03/20 10:30:35;;;;;;;8.35;2.60;;;15.20;99.90;;;;;;5052725;28;20124;-61
2024/03/20 10:33:02;;;;;;;7.63;2.80;;;15.20;99.90;;;;;;5052770;28;20120;-62
2024/03/20 10:35:27;;;;;;;6.88;2.88;;;15.20;99.90;;;;;;5052508;28;20032;-61
2024/03/20 10:37:53;;;;;;;9.07;2.95;;;15.20;99.90;;;;;;5052959;28;20475;-61
2024/03/20 10:40:19;;;;;;;5.53;2.95;;;15.30;99.90;;;;;;5052657;28;20072;-61
2024/03/20 10:42:45;;;;;;;10.52;2.90;;;15.30;99.90;;;;;;5052276;28;20032;-61
2024/03/20 10:45:10;;;;;;;11.77;3.15;;;15.40;99.90;;;;;;5052705;28;20040;-61
2024/03/20 10:47:36;;;;;;;9.40;2.92;;;15.40;99.90;;;;;;5052508;28;20049;-70
2024/03/20 10:50:02;;;;;;;7.75;2.80;;;15.40;99.90;;;;;;5052969;28;20045;-69
2024/03/20 10:52:28;;;;;;;10.95;3.38;;;15.50;99.90;;;;;;5052921;28;20045;-71
2024/03/20 10:54:55;;;;;;;9.35;3.00;;;15.50;99.90;;;;;;5052478;28;20043;-69
2024/03/20 10:57:20;;;;;;;12.00;2.90;;;15.50;99.90;;;;;;5052196;28;20033;-69
2024/03/20 10:59:48;;;;;;;7.50;3.17;;;15.60;99.90;;;;;;5052600;28;20545;-70
2024/03/20 11:02:15;;;;;;;8.80;3.20;;;15.70;99.90;;;;;;5052637;28;20049;-69
2024/03/20 11:04:41;;;;;;;8.07;2.90;;;15.60;99.90;;;;;;5052750;28;20047;-69
2024/03/20 11:07:07;;;;;;;6.60;3.00;;;15.60;99.90;;;;;;5069446;28;20036;-70
2024/03/20 11:09:33;;;;;;;9.45;3.15;;;15.60;99.90;;;;;;5052760;28;20055;-70
2024/03/20 11:11:59;;;;;;;8.73;3.15;;;15.50;99.90;;;;;;5052536;28;20103;-69
2024/03/20 11:14:25;;;;;;;8.55;3.13;;;15.50;99.90;;;;;;5052567;28;20079;-70
2024/03/20 11:16:51;;;;;;;13.13;2.92;;;15.40;99.90;;;;;;5051990;28;20045;-70
2024/03/20 11:19:16;;;;;;;8.30;2.85;;;15.40;99.90;;;;;;5052334;28;20069;-70
2024/03/20 11:21:42;;;;;;;7.80;2.85;;;15.40;99.90;;;;;;5052280;28;20048;-70
2024/03/20 11:24:08;;;;;;;7.82;2.97;;;15.40;99.90;;;;;;5052266;28;20387;-70
2024/03/20 11:26:34;;;;;;;10.18;2.83;;;15.40;99.90;;;;;;5052007;28;20059;-69
2024/03/20 11:29:02;;;;;;;7.80;2.90;;;15.50;99.90;;;;;;5052909;28;20139;-70
2024/03/20 11:31:28;;;;;;;10.68;3.30;;;15.60;99.90;;;;;;5052416;28;20037;-70
2024/03/20 11:33:54;;;;;;;12.40;3.50;;;15.70;99.90;;;;;;5052904;28;20052;-70
2024/03/20 11:36:20;;;;;;;8.55;3.00;;;15.80;99.90;;;;;;5051972;28;20044;-69
2024/03/20 11:38:46;;;;;;;10.65;2.83;;;15.90;99.90;;;;;;5052382;28;20048;-62
2024/03/20 11:41:12;;;;;;;9.70;2.83;;;15.90;99.90;;;;;;5051852;28;20087;-62
2024/03/20 11:43:38;;;;;;;7.05;2.75;;;15.90;99.90;;;;;;5052145;28;20049;-62
2024/03/20 11:46:04;;;;;;;11.40;3.38;;;16.00;99.90;;;;;;5052453;28;20052;-61
2024/03/20 11:48:29;;;;;;;6.82;3.17;;;16.00;99.90;;;;;;5052402;28;20047;-62
2024/03/20 11:50:55;;;;;;;9.50;3.00;;;16.10;99.90;;;;;;5052295;28;20040;-69
2024/03/20 11:53:21;;;;;;;8.70;3.22;;;16.10;99.90;;;;;;5053528;28;20119;-69
2024/03/20 11:55:47;;;;;;;9.82;3.00;;;16.10;99.90;;;;;;5055955;28;20048;-69
2024/03/20 11:58:14;;;;;;;6.68;2.83;;;16.20;99.90;;;;;;5055799;28;20186;-70
2024/03/20 12:00:40;;;;;;;9.13;3.45;;;16.20;99.90;;;;;;5072410;28;20048;-69
2024/03/20 12:03:05;;;;;;;9.48;3.30;;;16.20;99.90;;;;;;5056198;28;20036;-66
2024/03/20 12:05:31;;;;;;;7.43;3.17;;;16.30;99.90;;;;;;5055512;28;20497;-66
2024/03/20 12:07:57;;;;;;;7.35;3.20;;;16.30;99.90;;;;;;5055495;28;20110;-62
2024/03/20 12:10:23;;;;;;;7.82;2.80;;;16.40;99.90;;;;;;5055424;28;20048;-61
2024/03/20 12:12:48;;;;;;;8.35;3.05;;;16.40;99.90;;;;;;5055268;28;20037;-62
2024/03/20 12:15:19;;;;;;;9.43;3.20;;;16.40;99.90;;;;;;5055672;28;20033;-62
2024/03/20 12:17:46;;;;;;;8.43;3.17;;;16.50;99.90;;;;;;5055530;28;20045;-61
2024/03/20 12:20:12;;;;;;;9.73;3.22;;;16.40;99.90;;;;;;5055700;28;20068;-62
2024/03/20 12:22:39;;;;;;;8.98;3.00;;;16.40;99.90;;;;;;5055364;28;20041;-61
2024/03/20 12:25:04;;;;;;;9.10;2.97;;;16.40;99.90;;;;;;5055215;28;20033;-61
2024/03/20 12:27:30;;;;;;;10.75;3.10;;;16.40;99.90;;;;;;5054939;28;20044;-61
2024/03/20 12:29:56;;;;;;;7.63;2.80;;;16.50;99.90;;;;;;5054976;28;20563;-62
2024/03/20 12:32:22;;;;;;;11.35;3.20;;;16.60;99.90;;;;;;5055159;28;20477;-70